Time;durP1;ratioP1;P1;durP2;ratioP2;P2;SDS_P1;SDS_P2;PMS_P1;PMS_P2;Temp;Humidity;BMP_temperature;BMP_pressure;BME280_temperature;BME280_humidity;BME280_pressure;Samples;Min_cycle;Max_cycle;Signal;HPM_P1;HPM_P2
2022/03/05 00:00:25;;;;;;;0.80;0.80;;;0.50;99.90;;;-143.19;100.00;53775.09;4926047;28;20228;-65
2022/03/05 00:02:53;;;;;;;0.88;0.88;;;0.50;99.90;;;-143.19;100.00;53775.09;4933692;28;20216;-65
2022/03/05 00:05:22;;;;;;;1.00;1.00;;;0.50;99.90;;;-143.19;100.00;53775.09;4956994;28;20238;-65
2022/03/05 00:07:50;;;;;;;0.70;0.70;;;0.40;99.90;;;-143.19;100.00;53775.09;4917659;29;20770;-65
2022/03/05 00:10:19;;;;;;;1.00;1.00;;;0.40;99.90;;;-143.19;100.00;53775.09;4913937;29;20233;-66
2022/03/05 00:12:49;;;;;;;0.90;0.90;;;0.30;99.90;;;-143.19;100.00;53775.09;4901090;29;20210;-65
2022/03/05 00:15:18;;;;;;;0.57;0.57;;;0.20;99.90;;;-143.19;100.00;53775.09;4933802;29;20226;-65
2022/03/05 00:17:47;;;;;;;1.30;1.20;;;0.20;99.90;;;-143.19;100.00;53775.09;4915516;28;20213;-65
2022/03/05 00:20:16;;;;;;;1.10;1.05;;;0.20;99.90;;;-143.19;100.00;53775.09;4927959;29;20593;-65
2022/03/05 00:22:45;;;;;;;0.90;0.90;;;0.20;99.90;;;-143.19;100.00;53775.09;4913840;28;20214;-65
2022/03/05 00:25:14;;;;;;;0.60;0.60;;;0.10;99.90;;;-143.19;100.00;53775.09;4913338;29;20233;-66
2022/03/05 00:27:43;;;;;;;0.88;0.88;;;0.10;99.90;;;-143.19;100.00;53775.09;4931656;28;20198;-65
2022/03/05 00:30:12;;;;;;;1.05;1.05;;;0.10;99.90;;;-143.19;100.00;53775.09;4900702;29;20217;-65
2022/03/05 00:32:40;;;;;;;1.00;1.00;;;0.10;99.90;;;-143.19;100.00;53775.09;4926516;29;20206;-66
2022/03/05 00:35:08;;;;;;;0.70;0.70;;;0.10;99.90;;;-143.19;100.00;53775.09;4921287;29;20237;-66
2022/03/05 00:37:37;;;;;;;1.38;1.27;;;0.00;99.90;;;-143.19;100.00;53775.09;4929154;28;20205;-66
2022/03/05 00:40:06;;;;;;;0.70;0.70;;;0.00;99.90;;;-143.19;100.00;53775.09;4932245;29;20240;-66
2022/03/05 00:42:35;;;;;;;0.50;0.50;;;0.00;99.90;;;-143.19;100.00;53775.09;4915884;29;20224;-66
2022/03/05 00:45:05;;;;;;;0.60;0.60;;;0.00;99.90;;;-143.19;100.00;53775.09;4936860;28;20257;-67
2022/03/05 00:47:35;;;;;;;0.70;0.70;;;0.00;99.90;;;-143.19;100.00;53775.09;4934389;29;20214;-67
2022/03/05 00:50:06;;;;;;;0.80;0.80;;;-0.10;99.90;;;-143.19;100.00;53775.09;4917795;28;20214;-66
2022/03/05 00:52:36;;;;;;;0.50;0.50;;;-0.10;99.90;;;-143.19;100.00;53775.09;4935113;29;20234;-67
2022/03/05 00:55:05;;;;;;;1.00;1.00;;;-0.10;99.90;;;-143.19;100.00;53775.09;4932614;28;20226;-66
2022/03/05 00:57:33;;;;;;;0.80;0.80;;;-0.10;99.90;;;-143.19;100.00;53775.09;4886124;29;20210;-67
2022/03/05 01:00:04;;;;;;;1.08;1.05;;;-0.10;99.90;;;-143.19;100.00;53775.09;4915982;28;20212;-66
2022/03/05 01:02:32;;;;;;;1.02;1.02;;;-0.20;99.90;;;-143.19;100.00;53775.09;4915904;28;20217;-67
2022/03/05 01:05:00;;;;;;;7.53;2.92;;;-0.10;99.90;;;-143.19;100.00;53775.09;4981539;23;20225;-66
2022/03/05 01:07:28;;;;;;;0.82;0.82;;;-0.20;99.90;;;-143.19;100.00;53775.09;4932142;28;20228;-65
2022/03/05 01:09:56;;;;;;;1.15;1.10;;;-0.20;99.90;;;-143.19;100.00;53775.09;4917574;28;20233;-65
2022/03/05 01:12:25;;;;;;;1.23;1.13;;;-0.20;99.90;;;-143.19;100.00;53775.09;4933486;28;20225;-65
2022/03/05 01:14:53;;;;;;;1.05;0.95;;;-0.20;99.90;;;-143.19;100.00;53775.09;4969420;28;20210;-65
2022/03/05 01:17:21;;;;;;;0.82;0.82;;;-0.20;99.90;;;-143.19;100.00;53775.09;4939089;28;20209;-66
2022/03/05 01:19:49;;;;;;;1.05;1.05;;;-0.20;99.90;;;-143.19;100.00;53775.09;4937323;28;20208;-65
2022/03/05 01:22:17;;;;;;;0.80;0.80;;;-0.30;99.90;;;-143.19;100.00;53775.09;4935442;28;20210;-65
2022/03/05 01:24:45;;;;;;;1.10;1.10;;;-0.30;99.90;;;-143.19;100.00;53775.09;4922626;28;20209;-65
2022/03/05 01:27:14;;;;;;;1.00;1.00;;;-0.30;99.90;;;-143.19;100.00;53775.09;4958629;28;20220;-65
2022/03/05 01:29:42;;;;;;;0.98;0.98;;;-0.30;99.90;;;-143.19;100.00;53775.09;4939870;28;20204;-65
2022/03/05 01:32:10;;;;;;;0.82;0.82;;;-0.30;99.90;;;-143.19;100.00;53775.09;4942272;28;20236;-65
2022/03/05 01:34:38;;;;;;;0.70;0.70;;;-0.30;99.90;;;-143.19;100.00;53775.09;4930422;28;20208;-65
2022/03/05 01:37:07;;;;;;;1.15;1.10;;;-0.30;99.90;;;-143.19;100.00;53775.09;4953830;28;20235;-65
2022/03/05 01:39:35;;;;;;;0.70;0.70;;;-0.30;99.90;;;-143.19;100.00;53775.09;4923365;28;20226;-65
2022/03/05 01:42:04;;;;;;;0.90;0.90;;;-0.30;99.90;;;-143.19;100.00;53775.09;4939691;28;20209;-65
2022/03/05 01:44:32;;;;;;;0.93;0.93;;;-0.30;99.90;;;-143.19;100.00;53775.09;4924897;28;20205;-66
2022/03/05 01:47:04;;;;;;;0.95;0.95;;;-0.30;99.90;;;-143.19;100.00;53775.09;4934212;28;20233;-65
2022/03/05 01:49:33;;;;;;;1.25;1.15;;;-0.40;99.90;;;-143.19;100.00;53775.09;4955333;28;20209;-65
2022/03/05 01:52:01;;;;;;;0.80;0.80;;;-0.30;99.90;;;-143.19;100.00;53775.09;4941924;28;20227;-65
2022/03/05 01:54:30;;;;;;;0.98;0.98;;;-0.30;99.90;;;-143.19;100.00;53775.09;4940172;28;20208;-66
2022/03/05 01:57:00;;;;;;;1.02;0.93;;;-0.40;99.90;;;-143.19;100.00;53775.09;4948473;28;20224;-66
2022/03/05 01:59:29;;;;;;;0.90;0.90;;;-0.40;99.90;;;-143.19;100.00;53775.09;4937657;29;20685;-66
2022/03/05 02:01:57;;;;;;;0.80;0.80;;;-0.40;99.90;;;-143.19;100.00;53775.09;4971356;28;20217;-65
2022/03/05 02:04:26;;;;;;;1.02;1.00;;;-0.40;99.90;;;-143.19;100.00;53775.09;4929671;28;20305;-65
2022/03/05 02:06:54;;;;;;;0.90;0.90;;;-0.50;99.90;;;-143.19;100.00;53775.09;4942058;28;20226;-65
2022/03/05 02:09:24;;;;;;;0.90;0.90;;;-0.50;99.90;;;-143.19;100.00;53775.09;4925073;28;20224;-65
2022/03/05 02:11:52;;;;;;;1.30;1.20;;;-0.50;99.90;;;-143.19;100.00;53775.09;4921585;28;20733;-65
2022/03/05 02:14:20;;;;;;;0.88;0.88;;;-0.40;99.90;;;-143.19;100.00;53775.09;4953343;28;20206;-65
2022/03/05 02:16:48;;;;;;;0.70;0.70;;;-0.40;99.90;;;-143.19;100.00;53775.09;4924792;28;20340;-65
2022/03/05 02:19:17;;;;;;;0.70;0.70;;;-0.30;99.90;;;-143.19;100.00;53775.09;4943006;28;20203;-65
2022/03/05 02:21:46;;;;;;;0.68;0.68;;;-0.40;99.90;;;-143.19;100.00;53775.09;4942150;28;20217;-65
2022/03/05 02:24:31;;;;;;;0.90;0.90;;;-0.50;99.90;;;-143.19;100.00;53775.09;4921393;28;20209;-66
2022/03/05 02:27:02;;;;;;;1.20;1.10;;;-0.40;99.90;;;-143.19;100.00;53775.09;4957635;28;20236;-66
2022/03/05 02:29:37;;;;;;;1.20;1.10;;;-0.50;99.90;;;-143.19;100.00;53775.09;4953587;28;20217;-65
2022/03/05 02:32:06;;;;;;;1.00;1.00;;;-0.50;99.90;;;-143.19;100.00;53775.09;4956462;28;20224;-65
2022/03/05 02:34:34;;;;;;;0.85;0.85;;;-0.50;99.90;;;-143.19;100.00;53775.09;4953104;28;20673;-65
2022/03/05 02:37:03;;;;;;;0.90;0.90;;;-0.50;99.90;;;-143.19;100.00;53775.09;4941407;28;20225;-65
2022/03/05 02:39:31;;;;;;;0.80;0.80;;;-0.50;99.90;;;-143.19;100.00;53775.09;4959003;28;20205;-65
2022/03/05 02:41:59;;;;;;;1.20;1.10;;;-0.60;99.90;;;-143.19;100.00;53775.09;4961424;28;20207;-65
2022/03/05 02:44:27;;;;;;;1.02;1.00;;;-0.40;99.90;;;-143.19;100.00;53775.09;4947152;28;20216;-65
2022/03/05 02:46:56;;;;;;;0.68;0.68;;;-0.50;99.90;;;-143.19;100.00;53775.09;4951755;28;20236;-65
2022/03/05 02:49:25;;;;;;;0.70;0.70;;;-0.70;99.90;;;-143.19;100.00;53775.09;4937281;28;20217;-65
2022/03/05 02:51:53;;;;;;;0.80;0.80;;;-0.70;99.90;;;-143.19;100.00;53775.09;4939526;28;20229;-65
2022/03/05 02:54:22;;;;;;;1.10;1.00;;;-0.60;99.90;;;-143.19;100.00;53775.09;4941852;28;20219;-66
2022/03/05 02:56:51;;;;;;;0.80;0.80;;;-0.70;99.90;;;-143.19;100.00;53775.09;4928109;28;20222;-66
2022/03/05 02:59:19;;;;;;;1.33;1.23;;;-0.70;99.90;;;-143.19;100.00;53775.09;4927130;28;20208;-66
2022/03/05 03:01:47;;;;;;;0.90;0.90;;;-0.20;99.90;;;-143.19;100.00;53775.09;4921255;28;20221;-65
2022/03/05 03:04:15;;;;;;;0.88;0.88;;;-0.80;99.90;;;-143.19;100.00;53775.09;4969025;28;20213;-65
2022/03/05 03:06:43;;;;;;;0.80;0.80;;;-0.90;99.90;;;-143.19;100.00;53775.09;4956036;28;20233;-65
2022/03/05 03:09:11;;;;;;;1.00;1.00;;;-0.90;99.90;;;-143.19;100.00;53775.09;4919607;28;20218;-65
2022/03/05 03:11:39;;;;;;;1.33;1.23;;;-1.00;99.90;;;-143.19;100.00;53775.09;4934908;28;20209;-65
2022/03/05 03:14:07;;;;;;;1.48;1.38;;;-0.90;99.90;;;-143.19;100.00;53775.09;4932110;28;20228;-65
2022/03/05 03:16:36;;;;;;;0.90;0.90;;;-1.00;99.90;;;-143.19;100.00;53775.09;4941988;28;20735;-65
2022/03/05 03:19:04;;;;;;;0.70;0.70;;;-1.00;99.90;;;-143.19;100.00;53775.09;4936452;28;20205;-65
2022/03/05 03:21:32;;;;;;;0.75;0.75;;;-0.80;99.90;;;-143.19;100.00;53775.09;4938417;28;20653;-65
2022/03/05 03:24:01;;;;;;;1.30;1.20;;;-1.00;99.90;;;-143.19;100.00;53775.09;4955137;28;20206;-65
2022/03/05 03:26:29;;;;;;;0.80;0.80;;;-1.10;99.90;;;-143.19;100.00;53775.09;4954792;28;20232;-65
2022/03/05 03:28:57;;;;;;;1.00;0.98;;;-1.10;99.90;;;-143.19;100.00;53775.09;4924511;28;20217;-65
2022/03/05 03:31:26;;;;;;;0.88;0.88;;;-0.80;99.90;;;-143.19;100.00;53775.09;4938774;28;20228;-65
2022/03/05 03:33:54;;;;;;;0.90;0.90;;;-1.20;99.90;;;-143.19;100.00;53775.09;4924287;28;20250;-65
2022/03/05 03:36:22;;;;;;;1.08;1.00;;;-1.20;99.90;;;-143.19;100.00;53775.09;4932598;28;20225;-65
2022/03/05 03:38:50;;;;;;;1.15;1.10;;;-1.20;99.90;;;-143.19;100.00;53775.09;4933425;28;20242;-65
2022/03/05 03:41:19;;;;;;;0.77;0.77;;;-1.20;99.90;;;-143.19;100.00;53775.09;4935375;28;20224;-65
2022/03/05 03:43:47;;;;;;;0.90;0.90;;;-1.20;99.90;;;-143.19;100.00;53775.09;4948499;28;20222;-65
2022/03/05 03:46:15;;;;;;;0.90;0.90;;;-1.10;99.90;;;-143.19;100.00;53775.09;4918648;28;20300;-65
2022/03/05 03:48:43;;;;;;;1.83;1.73;;;-1.30;99.90;;;-143.19;100.00;53775.09;4964123;28;20236;-65
2022/03/05 03:51:11;;;;;;;1.38;1.27;;;-1.30;99.90;;;-143.19;100.00;53775.09;4948504;28;20205;-65
2022/03/05 03:53:39;;;;;;;0.70;0.70;;;-1.40;99.90;;;-143.19;100.00;53775.09;4918090;28;20236;-65
2022/03/05 03:56:08;;;;;;;1.10;1.05;;;-1.40;99.90;;;-143.19;100.00;53775.09;4933409;28;20236;-67
2022/03/05 03:58:36;;;;;;;0.77;0.77;;;-1.40;99.90;;;-143.19;100.00;53775.09;4937351;28;20197;-66
2022/03/05 04:01:04;;;;;;;1.63;1.52;;;-1.40;99.90;;;-143.19;100.00;53775.09;4952465;28;20220;-66
2022/03/05 04:03:32;;;;;;;0.98;0.98;;;-1.50;99.90;;;-143.19;100.00;53775.09;4933664;28;20213;-65
2022/03/05 04:06:00;;;;;;;1.50;1.40;;;-1.40;99.90;;;-143.19;100.00;53775.09;4933202;28;20242;-65
2022/03/05 04:08:43;;;;;;;1.20;1.10;;;-1.30;99.90;;;-143.19;100.00;53775.09;4935517;28;20213;-65
2022/03/05 04:11:20;;;;;;;0.60;0.60;;;-1.00;99.90;;;-143.19;100.00;53775.09;4938825;28;20213;-65
2022/03/05 04:13:48;;;;;;;0.70;0.70;;;-1.00;99.90;;;-143.19;100.00;53775.09;4919922;28;20229;-65
2022/03/05 04:16:16;;;;;;;1.30;1.20;;;-1.40;99.90;;;-143.19;100.00;53775.09;4917550;28;20225;-65
2022/03/05 04:18:44;;;;;;;0.88;0.88;;;-1.30;99.90;;;-143.19;100.00;53775.09;4920000;29;20579;-65
2022/03/05 04:21:13;;;;;;;0.80;0.80;;;-1.40;99.90;;;-143.19;100.00;53775.09;4937516;28;20202;-65
2022/03/05 04:23:41;;;;;;;1.40;1.30;;;-1.40;99.90;;;-143.19;100.00;53775.09;4951590;28;20584;-65
2022/03/05 04:26:08;;;;;;;0.93;0.93;;;-1.40;99.90;;;-143.19;100.00;53775.09;4938651;28;20232;-65
2022/03/05 04:28:36;;;;;;;1.17;1.08;;;-1.20;99.90;;;-143.19;100.00;53775.09;4965259;28;20621;-65
2022/03/05 04:31:04;;;;;;;0.90;0.90;;;-1.50;99.90;;;-143.19;100.00;53775.09;4942068;28;20220;-65
2022/03/05 04:33:33;;;;;;;0.90;0.90;;;-1.50;99.90;;;-143.19;100.00;53775.09;4962920;28;20581;-65
2022/03/05 04:36:00;;;;;;;0.90;0.90;;;-1.50;99.90;;;-143.19;100.00;53775.09;4941972;28;20278;-65
2022/03/05 04:38:29;;;;;;;0.70;0.70;;;-1.40;99.90;;;-143.19;100.00;53775.09;4933469;28;20217;-65
2022/03/05 04:40:57;;;;;;;0.80;0.80;;;-1.50;99.90;;;-143.19;100.00;53775.09;4927392;28;20207;-65
2022/03/05 04:43:25;;;;;;;1.25;1.15;;;-1.30;99.90;;;-143.19;100.00;53775.09;4922348;28;20202;-65
2022/03/05 04:45:53;;;;;;;1.13;1.02;;;-1.60;99.90;;;-143.19;100.00;53775.09;4953710;28;20230;-65
2022/03/05 04:48:21;;;;;;;1.20;1.10;;;-1.40;99.90;;;-143.19;100.00;53775.09;4920014;28;20209;-65
2022/03/05 04:50:49;;;;;;;1.30;1.20;;;-1.40;99.90;;;-143.19;100.00;53775.09;4943314;28;20220;-65
2022/03/05 04:53:20;;;;;;;0.60;0.60;;;-1.50;99.90;;;-143.19;100.00;53775.09;4932005;28;20216;-66
2022/03/05 04:55:49;;;;;;;0.77;0.77;;;-1.50;99.90;;;-143.19;100.00;53775.09;4955508;28;20229;-66
2022/03/05 04:58:18;;;;;;;0.60;0.60;;;-1.60;99.90;;;-143.19;100.00;53775.09;4956541;28;20213;-66
2022/03/05 05:00:47;;;;;;;0.85;0.85;;;-1.60;99.90;;;-143.19;100.00;53775.09;4928155;28;20208;-65
2022/03/05 05:03:15;;;;;;;0.80;0.80;;;-1.60;99.90;;;-143.19;100.00;53775.09;4930701;28;20208;-65
2022/03/05 05:05:43;;;;;;;0.77;0.77;;;-1.60;99.90;;;-143.19;100.00;53775.09;4932822;28;20225;-65
2022/03/05 05:08:11;;;;;;;1.35;1.25;;;-1.60;99.90;;;-143.19;100.00;53775.09;4922805;28;20213;-65
2022/03/05 05:10:39;;;;;;;1.73;1.63;;;-1.50;99.90;;;-143.19;100.00;53775.09;4946624;29;20614;-65
2022/03/05 05:13:08;;;;;;;0.70;0.70;;;-1.60;99.90;;;-143.19;100.00;53775.09;4956005;28;20228;-65
2022/03/05 05:15:36;;;;;;;0.90;0.90;;;-1.80;99.90;;;-143.19;100.00;53775.09;4942606;28;20230;-65
2022/03/05 05:18:04;;;;;;;0.90;0.90;;;-1.80;99.90;;;-143.19;100.00;53775.09;4938555;28;20208;-65
2022/03/05 05:20:32;;;;;;;0.88;0.88;;;-1.80;99.90;;;-143.19;100.00;53775.09;4940355;28;20208;-65
2022/03/05 05:23:00;;;;;;;1.02;1.00;;;-1.80;99.90;;;-143.19;100.00;53775.09;4963133;28;20669;-65
2022/03/05 05:25:29;;;;;;;0.85;0.85;;;-1.80;99.90;;;-143.19;100.00;53775.09;4930623;28;20233;-65
2022/03/05 05:27:57;;;;;;;1.08;1.00;;;-1.90;99.90;;;-143.19;100.00;53775.09;4957364;28;20221;-65
2022/03/05 05:30:25;;;;;;;1.20;1.10;;;-1.90;99.90;;;-143.19;100.00;53775.09;4933835;28;20229;-65
2022/03/05 05:32:54;;;;;;;0.90;0.90;;;-1.90;99.90;;;-143.19;100.00;53775.09;4953400;28;20201;-65
2022/03/05 05:35:22;;;;;;;0.95;0.95;;;-1.90;99.90;;;-143.19;100.00;53775.09;4947393;28;20221;-65
2022/03/05 05:37:50;;;;;;;0.82;0.82;;;-1.90;99.90;;;-143.19;100.00;53775.09;4932192;28;20205;-65
2022/03/05 05:40:18;;;;;;;0.90;0.90;;;-1.90;99.90;;;-143.19;100.00;53775.09;4926573;28;20206;-65
2022/03/05 05:42:46;;;;;;;0.85;0.85;;;-1.90;99.90;;;-143.19;100.00;53775.09;4954407;28;20206;-65
2022/03/05 05:45:14;;;;;;;1.20;1.10;;;-1.90;99.90;;;-143.19;100.00;53775.09;4957015;28;20720;-65
2022/03/05 05:47:43;;;;;;;0.90;0.90;;;-2.00;99.90;;;-143.19;100.00;53775.09;4927852;28;20198;-65
2022/03/05 05:50:11;;;;;;;1.30;1.20;;;-2.00;99.90;;;-143.19;100.00;53775.09;4946892;28;20202;-65
2022/03/05 05:52:39;;;;;;;0.80;0.80;;;-2.00;99.90;;;-143.19;100.00;53775.09;4938282;28;20202;-65
2022/03/05 05:55:07;;;;;;;1.23;1.13;;;-2.00;99.90;;;-143.19;100.00;53775.09;4937795;28;20236;-66
2022/03/05 05:57:35;;;;;;;0.80;0.80;;;-2.10;99.90;;;-143.19;100.00;53775.09;4958460;28;20228;-66
2022/03/05 06:00:05;;;;;;;0.82;0.82;;;-1.90;99.90;;;-143.19;100.00;53775.09;4950801;28;20206;-66
2022/03/05 06:02:39;;;;;;;0.73;0.73;;;-2.10;99.90;;;-143.19;100.00;53775.09;4954985;28;20201;-65
2022/03/05 06:05:07;;;;;;;0.80;0.80;;;-2.10;99.90;;;-143.19;100.00;53775.09;4930684;29;20237;-65
2022/03/05 06:07:36;;;;;;;0.80;0.80;;;-2.10;99.90;;;-143.19;100.00;53775.09;4951606;28;20210;-65
2022/03/05 06:10:04;;;;;;;0.70;0.70;;;-2.10;99.90;;;-143.19;100.00;53775.09;4973144;28;20209;-65
2022/03/05 06:12:32;;;;;;;0.88;0.88;;;-2.20;99.90;;;-143.19;100.00;53775.09;4948862;28;20212;-65
2022/03/05 06:15:01;;;;;;;1.48;1.38;;;-2.20;99.90;;;-143.19;100.00;53775.09;4941288;28;20233;-68
2022/03/05 06:17:30;;;;;;;1.15;1.08;;;-2.20;99.90;;;-143.19;100.00;53775.09;4943200;29;20575;-66
2022/03/05 06:19:58;;;;;;;0.98;0.98;;;-1.90;99.90;;;-143.19;100.00;53775.09;4932721;28;20201;-66
2022/03/05 06:22:26;;;;;;;0.82;0.82;;;-2.00;99.90;;;-143.19;100.00;53775.09;4972771;28;20228;-64
2022/03/05 06:24:54;;;;;;;1.10;1.00;;;-1.80;99.90;;;-143.19;100.00;53775.09;4942969;28;20227;-64
2022/03/05 06:27:26;;;;;;;0.88;0.88;;;-1.90;99.90;;;-143.19;100.00;53775.09;4924488;28;20206;-64
2022/03/05 06:29:54;;;;;;;0.90;0.90;;;-1.90;99.90;;;-143.19;100.00;53775.09;4934956;28;20201;-64
2022/03/05 06:32:22;;;;;;;1.70;1.60;;;-1.90;99.90;;;-143.19;100.00;53775.09;4952802;28;20602;-65
2022/03/05 06:34:54;;;;;;;0.95;0.93;;;-1.80;99.90;;;-143.19;100.00;53775.09;4941612;28;20229;-65
2022/03/05 06:37:23;;;;;;;1.00;1.00;;;-1.90;99.90;;;-143.19;100.00;53775.09;4924708;28;20205;-65
2022/03/05 06:39:51;;;;;;;0.80;0.80;;;-1.90;99.90;;;-143.19;100.00;53775.09;4944346;28;20546;-65
2022/03/05 06:42:19;;;;;;;0.80;0.80;;;-1.90;99.90;;;-143.19;100.00;53775.09;4923302;28;20197;-65
2022/03/05 06:44:47;;;;;;;0.73;0.73;;;-1.90;99.90;;;-143.19;100.00;53775.09;4922608;28;20197;-65
2022/03/05 06:47:16;;;;;;;1.27;1.17;;;-1.90;99.90;;;-143.19;100.00;53775.09;4938287;28;20212;-65
2022/03/05 06:49:44;;;;;;;1.23;1.13;;;-1.80;99.90;;;-143.19;100.00;53775.09;4973257;28;20201;-66
2022/03/05 06:52:13;;;;;;;0.77;0.77;;;-1.90;99.90;;;-143.19;100.00;53775.09;4923377;28;20736;-65
2022/03/05 06:54:42;;;;;;;0.90;0.90;;;-1.80;99.90;;;-143.19;100.00;53775.09;4926410;28;20243;-65
2022/03/05 06:57:10;;;;;;;1.52;1.42;;;-1.80;99.90;;;-143.19;100.00;53775.09;4927063;28;20245;-66
2022/03/05 06:59:38;;;;;;;0.90;0.90;;;-1.70;99.90;;;-143.19;100.00;53775.09;4926249;28;20208;-65
2022/03/05 07:02:08;;;;;;;1.02;1.00;;;-1.60;99.90;;;-143.19;100.00;53775.09;4928291;28;20661;-66
2022/03/05 07:04:36;;;;;;;1.20;1.10;;;-1.70;99.90;;;-143.19;100.00;53775.09;4942507;28;20487;-65
2022/03/05 07:07:04;;;;;;;1.02;1.00;;;-1.70;99.90;;;-143.19;100.00;53775.09;4924015;28;20233;-65
2022/03/05 07:09:33;;;;;;;0.68;0.68;;;-1.60;99.90;;;-143.19;100.00;53775.09;4954363;28;20208;-65
2022/03/05 07:12:01;;;;;;;0.90;0.90;;;-1.60;99.90;;;-143.19;100.00;53775.09;4948086;28;20217;-65
2022/03/05 07:14:29;;;;;;;0.93;0.93;;;-1.60;99.90;;;-143.19;100.00;53775.09;4940961;28;20237;-65
2022/03/05 07:16:57;;;;;;;1.08;1.00;;;-1.20;99.90;;;-143.19;100.00;53775.09;4939776;28;20228;-65
2022/03/05 07:19:25;;;;;;;1.00;1.00;;;-1.20;99.90;;;-143.19;100.00;53775.09;4959900;28;20202;-65
2022/03/05 07:21:53;;;;;;;1.00;1.00;;;-1.90;99.90;;;-143.19;100.00;53775.09;4962566;28;20219;-66
2022/03/05 07:24:21;;;;;;;4.30;4.10;;;-1.50;99.90;;;-143.19;100.00;53775.09;4953777;28;20582;-65
2022/03/05 07:26:49;;;;;;;1.42;1.33;;;-1.40;99.90;;;-143.19;100.00;53775.09;4935139;28;20265;-65
2022/03/05 07:29:17;;;;;;;0.80;0.80;;;-1.40;99.90;;;-143.19;100.00;53775.09;4938925;28;20216;-65
2022/03/05 07:31:45;;;;;;;1.17;1.08;;;-1.20;99.90;;;-143.19;100.00;53775.09;4964056;28;20202;-65
2022/03/05 07:34:13;;;;;;;1.38;1.27;;;-1.20;99.90;;;-143.19;100.00;53775.09;4947100;28;20228;-65
2022/03/05 07:36:42;;;;;;;0.70;0.70;;;-1.30;99.90;;;-143.19;100.00;53775.09;4959519;28;20221;-65
2022/03/05 07:39:10;;;;;;;0.90;0.90;;;-1.30;99.90;;;-143.19;100.00;53775.09;4920657;28;20213;-65
2022/03/05 07:41:38;;;;;;;0.82;0.82;;;-1.10;99.90;;;-143.19;100.00;53775.09;4942661;28;20658;-64
2022/03/05 07:44:09;;;;;;;0.70;0.70;;;-1.00;99.90;;;-143.19;100.00;53775.09;4926385;28;20590;-65
2022/03/05 07:46:37;;;;;;;0.93;0.93;;;-0.50;99.90;;;-143.19;100.00;53775.09;4938642;28;20228;-65
2022/03/05 07:49:06;;;;;;;0.57;0.57;;;-0.90;99.90;;;-143.19;100.00;53775.09;4948101;28;20201;-65
2022/03/05 07:51:36;;;;;;;0.50;0.50;;;-0.80;99.90;;;-143.19;100.00;53775.09;4964748;28;20201;-64
2022/03/05 07:54:05;;;;;;;0.70;0.70;;;-0.80;99.90;;;-143.19;100.00;53775.09;4936122;29;20217;-65
2022/03/05 07:56:33;;;;;;;0.80;0.80;;;-0.60;99.90;;;-143.19;100.00;53775.09;4951375;28;20612;-66
2022/03/05 07:59:01;;;;;;;1.00;1.00;;;-0.60;99.90;;;-143.19;100.00;53775.09;4978157;28;20204;-65
2022/03/05 08:01:30;;;;;;;1.02;1.00;;;-0.10;99.90;;;-143.19;100.00;53775.09;4949548;28;20229;-64
2022/03/05 08:03:58;;;;;;;0.90;0.90;;;-0.50;99.90;;;-143.19;100.00;53775.09;4950743;28;20216;-65
2022/03/05 08:06:26;;;;;;;1.40;1.30;;;-0.40;99.90;;;-143.19;100.00;53775.09;4967996;28;20230;-65
2022/03/05 08:08:57;;;;;;;1.40;1.30;;;-0.40;99.90;;;-143.19;100.00;53775.09;4963196;28;20197;-65
2022/03/05 08:11:26;;;;;;;1.27;1.17;;;0.00;99.90;;;-143.19;100.00;53775.09;4945294;28;20210;-65
2022/03/05 08:13:53;;;;;;;1.73;1.63;;;-0.20;99.90;;;-143.19;100.00;53775.09;4932960;28;20209;-65
2022/03/05 08:16:21;;;;;;;1.00;1.00;;;0.00;99.90;;;-143.19;100.00;53775.09;4951032;28;20243;-65
2022/03/05 08:18:50;;;;;;;1.17;1.08;;;0.00;99.90;;;-143.19;100.00;53775.09;4922857;28;20214;-65
2022/03/05 08:21:17;;;;;;;1.23;1.13;;;0.00;99.90;;;-143.19;100.00;53775.09;4936350;28;20206;-65
2022/03/05 08:23:46;;;;;;;1.20;1.10;;;0.10;99.90;;;-143.19;100.00;53775.09;4943123;28;20197;-65
2022/03/05 08:26:15;;;;;;;1.33;1.23;;;0.10;99.90;;;-143.19;100.00;53775.09;4951127;28;20604;-65
2022/03/05 08:28:43;;;;;;;0.90;0.90;;;0.10;99.90;;;-143.19;100.00;53775.09;4936875;28;20209;-65
2022/03/05 08:31:12;;;;;;;0.90;0.90;;;0.20;99.90;;;-143.19;100.00;53775.09;4923999;28;20209;-65
2022/03/05 08:33:40;;;;;;;0.93;0.93;;;0.40;99.90;;;-143.19;100.00;53775.09;4940302;28;20205;-65
2022/03/05 08:36:08;;;;;;;1.58;1.48;;;0.40;99.90;;;-143.19;100.00;53775.09;4948279;28;20228;-66
2022/03/05 08:38:36;;;;;;;0.80;0.80;;;0.40;99.90;;;-143.19;100.00;53775.09;4944037;28;20229;-65
2022/03/05 08:41:04;;;;;;;1.08;0.98;;;0.50;99.90;;;-143.19;100.00;53775.09;4930002;28;20207;-65
2022/03/05 08:43:33;;;;;;;1.02;1.00;;;0.60;99.90;;;-143.19;100.00;53775.09;4939745;28;20201;-65
2022/03/05 08:46:01;;;;;;;1.10;1.00;;;0.60;99.90;;;-143.19;100.00;53775.09;4950939;28;20229;-65
2022/03/05 08:48:29;;;;;;;0.80;0.80;;;1.10;99.90;;;-143.19;100.00;53775.09;4923911;28;20216;-65
2022/03/05 08:50:57;;;;;;;0.90;0.90;;;0.80;99.90;;;-143.19;100.00;53775.09;4934935;28;20210;-65
2022/03/05 08:53:26;;;;;;;1.15;1.08;;;1.00;99.90;;;-143.19;100.00;53775.09;4930428;28;20588;-65
2022/03/05 08:55:53;;;;;;;1.27;1.17;;;0.90;99.90;;;-143.19;100.00;53775.09;4950176;28;20244;-66
2022/03/05 08:58:22;;;;;;;0.80;0.80;;;1.00;99.90;;;-143.19;100.00;53775.09;4924034;28;20232;-66
2022/03/05 09:00:51;;;;;;;1.30;1.20;;;0.90;99.90;;;-143.19;100.00;53775.09;4940964;28;20197;-65
2022/03/05 09:03:20;;;;;;;0.88;0.88;;;1.00;99.90;;;-143.19;100.00;53775.09;4937183;28;20205;-65
2022/03/05 09:05:48;;;;;;;1.00;1.00;;;1.10;99.90;;;-143.19;100.00;53775.09;4946965;28;20244;-65
2022/03/05 09:08:16;;;;;;;1.05;1.00;;;1.10;99.90;;;-143.19;100.00;53775.09;4952487;28;20224;-65
2022/03/05 09:10:44;;;;;;;0.60;0.60;;;1.20;99.90;;;-143.19;100.00;53775.09;4939270;28;20210;-65
2022/03/05 09:13:13;;;;;;;0.98;0.98;;;1.40;99.90;;;-143.19;100.00;53775.09;4917398;28;20225;-65
2022/03/05 09:15:41;;;;;;;1.30;1.20;;;1.30;99.90;;;-143.19;100.00;53775.09;4938843;28;20229;-65
2022/03/05 09:18:09;;;;;;;1.35;1.25;;;1.80;99.90;;;-143.19;100.00;53775.09;4956592;28;20205;-65
2022/03/05 09:20:37;;;;;;;0.82;0.82;;;1.50;99.90;;;-143.19;100.00;53775.09;4961249;28;20588;-65
2022/03/05 09:23:05;;;;;;;0.80;0.80;;;1.50;99.90;;;-143.19;100.00;53775.09;4937417;28;20230;-66
2022/03/05 09:25:33;;;;;;;1.15;1.05;;;1.60;99.90;;;-143.19;100.00;53775.09;4923239;28;20237;-66
2022/03/05 09:28:01;;;;;;;1.02;1.00;;;1.90;99.90;;;-143.19;100.00;53775.09;4921669;28;20213;-65
2022/03/05 09:30:29;;;;;;;0.88;0.88;;;1.80;99.90;;;-143.19;100.00;53775.09;4920402;28;20209;-66
2022/03/05 09:32:57;;;;;;;1.23;1.13;;;1.90;99.90;;;-143.19;100.00;53775.09;4948177;28;20212;-66
2022/03/05 09:35:25;;;;;;;0.90;0.90;;;2.00;99.90;;;-143.19;100.00;53775.09;4924963;28;20233;-66
2022/03/05 09:37:53;;;;;;;1.58;1.48;;;2.00;99.90;;;-143.19;100.00;53775.09;4970257;28;20244;-66
2022/03/05 09:40:22;;;;;;;1.20;1.10;;;2.30;99.90;;;-143.19;100.00;53775.09;4972725;28;20594;-65
2022/03/05 09:42:50;;;;;;;0.77;0.77;;;2.30;99.90;;;-143.19;100.00;53775.09;4946242;28;20202;-66
2022/03/05 09:45:19;;;;;;;1.17;1.08;;;2.40;99.90;;;-143.19;100.00;53775.09;4920140;28;20232;-66
2022/03/05 09:47:47;;;;;;;0.60;0.60;;;2.40;99.90;;;-143.19;100.00;53775.09;4925990;28;20206;-65
2022/03/05 09:50:16;;;;;;;0.70;0.70;;;2.50;99.90;;;-143.19;100.00;53775.09;4940618;28;20233;-65
2022/03/05 09:52:44;;;;;;;0.60;0.60;;;2.60;99.90;;;-143.19;100.00;53775.09;4938945;28;20228;-65
2022/03/05 09:55:12;;;;;;;0.65;0.65;;;2.70;99.90;;;-143.19;100.00;53775.09;4924926;28;20236;-66
2022/03/05 09:57:40;;;;;;;1.13;1.02;;;2.80;99.90;;;-143.19;100.00;53775.09;4923537;28;20205;-66
2022/03/05 10:00:09;;;;;;;1.20;1.10;;;2.80;99.90;;;-143.19;100.00;53775.09;4940899;28;20198;-66
2022/03/05 10:02:38;;;;;;;0.70;0.70;;;2.90;99.90;;;-143.19;100.00;53775.09;4953284;28;20205;-66
2022/03/05 10:05:20;;;;;;;1.00;1.00;;;3.00;99.90;;;-143.19;100.00;53775.09;4955531;28;20700;-65